Time;durP1;ratioP1;P1;durP2;ratioP2;P2;SDS_P1;SDS_P2;PMS_P1;PMS_P2;Temp;Humidity;BMP_temperature;BMP_pressure;BME280_temperature;BME280_humidity;BME280_pressure;Samples;Min_cycle;Max_cycle;Signal;HPM_P1;HPM_P2
2022/02/09 00:04:26;;;;;;;0.90;0.40;;;;;;;0.29;58.89;99005.28;4989007;28;20136;-80
2022/02/09 00:09:20;;;;;;;1.35;0.60;;;;;;;0.25;58.89;99012.03;5025220;28;20037;-78
2022/02/09 00:19:25;;;;;;;1.65;1.05;;;;;;;0.35;59.46;99007.97;5008103;28;20041;-78
2022/02/09 00:45:09;;;;;;;0.70;0.55;;;;;;;0.93;58.74;98981.69;5031427;28;20042;-77
2022/02/09 01:57:24;;;;;;;1.13;0.65;;;;;;;1.23;56.75;99006.09;5021115;28;20132;-79
2022/02/09 01:59:50;;;;;;;1.13;0.60;;;;;;;1.29;56.78;99015.59;5019942;28;21512;-77
2022/02/09 02:02:16;;;;;;;4.18;0.70;;;;;;;1.15;56.31;98999.97;5023179;28;20519;-78
2022/02/09 02:04:42;;;;;;;0.68;0.57;;;;;;;1.13;56.48;98996.53;5024462;28;20057;-77
2022/02/09 02:07:20;;;;;;;1.42;0.52;;;;;;;1.14;56.96;99000.81;5023269;28;20041;-79
2022/02/09 02:09:46;;;;;;;0.95;0.60;;;;;;;0.97;56.78;98965.53;4987152;28;20508;-79
2022/02/09 02:12:19;;;;;;;0.98;0.60;;;;;;;1.21;56.22;99000.09;5021741;28;20065;-79
2022/02/09 02:17:45;;;;;;;1.55;0.70;;;;;;;1.12;56.34;98988.00;4982742;28;20064;-77
2022/02/09 02:20:29;;;;;;;1.10;0.80;;;;;;;1.18;56.77;98987.22;4990433;28;20148;-79
2022/02/09 02:23:29;;;;;;;1.73;0.70;;;;;;;1.11;56.30;98985.38;5021464;28;20044;-77
2022/02/09 02:34:21;;;;;;;1.00;0.50;;;;;;;1.19;56.69;99007.75;4987174;28;20107;-78
2022/02/09 02:36:58;;;;;;;0.80;0.60;;;;;;;1.09;57.01;98998.19;5020502;28;20535;-79
2022/02/09 03:12:04;;;;;;;1.05;0.70;;;;;;;0.98;57.27;99015.94;5002571;28;20041;-78
2022/02/09 03:14:47;;;;;;;1.30;0.77;;;;;;;1.02;56.90;99019.41;5022585;28;20038;-79
2022/02/09 03:17:18;;;;;;;1.08;0.80;;;;;;;0.82;57.03;98989.19;4980215;28;20038;-76
2022/02/09 03:19:53;;;;;;;4.53;0.93;;;;;;;0.72;57.21;98967.66;5006378;28;20128;-79
2022/02/09 03:59:12;;;;;;;3.13;1.60;;;;;;;0.77;57.83;99008.75;5004072;28;20474;-80
2022/02/09 04:01:40;;;;;;;2.38;1.70;;;;;;;0.74;57.98;99013.81;5023714;28;20038;-78
2022/02/09 04:04:07;;;;;;;3.10;1.77;;;;;;;0.58;58.43;99003.28;5022615;28;20103;-79
2022/02/09 04:06:36;;;;;;;3.97;1.85;;;;;;;0.68;58.63;99022.22;5010461;28;20060;-79
2022/02/09 04:09:06;;;;;;;3.35;1.80;;;;;;;0.72;58.91;99026.59;5024910;28;20046;-79
2022/02/09 04:11:38;;;;;;;2.97;2.10;;;;;;;0.67;58.80;99006.84;5013456;28;20114;-79
2022/02/09 04:14:12;;;;;;;2.88;1.70;;;;;;;0.66;58.17;99012.81;5019794;28;20037;-80
2022/02/09 04:17:17;;;;;;;3.65;2.00;;;;;;;0.58;58.58;99013.50;5025759;28;20037;-79
2022/02/09 04:20:09;;;;;;;3.67;1.58;;;;;;;0.55;58.80;99008.34;5030187;28;20542;-77
2022/02/09 04:38:56;;;;;;;3.10;1.80;;;;;;;0.63;59.26;98989.69;5008633;28;20038;-79
2022/02/09 04:44:08;;;;;;;3.38;1.75;;;;;;;0.65;58.81;98970.09;5007664;28;20041;-79
2022/02/09 04:55:15;;;;;;;2.83;1.85;;;;;;;1.15;59.12;99026.50;5030012;28;20053;-77
2022/02/09 05:03:27;;;;;;;4.65;2.78;;;;;;;1.21;58.95;99038.53;4994035;28;20063;-79
2022/02/09 05:26:48;;;;;;;3.80;2.70;;;;;;;1.51;58.51;99029.63;5014044;28;20118;-80
2022/02/09 05:29:14;;;;;;;5.10;3.15;;;;;;;1.50;58.22;99025.34;4998760;28;20037;-82
2022/02/09 05:31:40;;;;;;;5.28;2.78;;;;;;;1.44;57.73;99015.81;5019656;28;20592;-82
2022/02/09 05:34:08;;;;;;;4.30;2.85;;;;;;;1.52;57.86;99038.16;5026709;28;20078;-80
2022/02/09 05:36:36;;;;;;;4.32;2.80;;;;;;;1.40;57.62;99014.06;5026644;28;20073;-78
2022/02/09 05:39:02;;;;;;;5.80;3.63;;;;;;;1.37;58.35;99008.88;5021351;28;20073;-80
2022/02/09 05:41:30;;;;;;;4.50;2.67;;;;;;;1.47;57.84;99021.00;5040005;28;20056;-79
2022/02/09 05:43:56;;;;;;;5.28;2.95;;;;;;;1.56;58.07;99030.53;4995753;28;20485;-82
2022/02/09 05:51:47;;;;;;;6.50;2.92;;;;;;;1.43;57.39;99024.38;5018374;28;20029;-79
2022/02/09 05:56:44;;;;;;;5.93;2.97;;;;;;;1.47;57.90;99027.84;5043108;28;20411;-80
2022/02/09 06:01:50;;;;;;;5.72;3.53;;;;;;;1.34;57.54;98999.44;5084786;22;20717;-78
2022/02/09 06:04:16;;;;;;;6.75;3.40;;;;;;;1.35;57.84;99024.22;5048618;28;20045;-80
2022/02/09 06:06:43;;;;;;;4.75;2.80;;;;;;;1.42;57.52;99024.34;5026328;28;20040;-79
2022/02/09 06:09:13;;;;;;;5.40;3.25;;;;;;;1.20;57.85;98977.84;5039597;28;20085;-81
2022/02/09 06:12:07;;;;;;;5.25;2.78;;;;;;;1.13;57.78;98961.53;4999773;28;20037;-79
2022/02/09 06:19:54;;;;;;;5.75;2.45;;;;;;;1.80;57.87;99053.13;5001491;28;20041;-80
2022/02/09 06:22:24;;;;;;;4.18;2.60;;;;;;;1.85;57.75;99053.19;5015931;28;20037;-82
2022/02/09 06:24:50;;;;;;;5.65;2.70;;;;;;;1.87;57.04;99050.66;5017969;28;20045;-79
2022/02/09 06:27:16;;;;;;;4.38;2.90;;;;;;;1.91;57.69;99054.97;5035983;28;20040;-80
2022/02/09 06:29:48;;;;;;;4.22;2.80;;;;;;;1.93;57.52;99045.59;5035220;28;20436;-79
2022/02/09 06:32:17;;;;;;;5.15;2.70;;;;;;;2.01;57.74;99049.16;5016364;28;20047;-78
2022/02/09 06:35:18;;;;;;;5.07;3.03;;;;;;;2.22;57.29;99058.81;5025723;28;20392;-81
2022/02/09 06:37:49;;;;;;;3.65;2.42;;;;;;;1.54;56.90;98950.19;4974265;28;20105;-82
2022/02/09 06:40:17;;;;;;;4.97;2.67;;;;;;;1.46;56.80;98946.63;4983080;28;20177;-82
2022/02/09 06:45:39;;;;;;;3.65;2.45;;;;;;;2.14;57.11;99054.44;4982777;28;20082;-80
2022/02/09 06:48:21;;;;;;;3.50;2.67;;;;;;;2.31;56.50;99081.22;4978030;28;20137;-78
2022/02/09 06:51:10;;;;;;;4.03;2.60;;;;;;;1.67;56.73;98973.41;4993660;28;20066;-78
2022/02/09 06:54:01;;;;;;;4.75;3.13;;;;;;;1.54;56.46;98939.03;4981751;28;20168;-78
2022/02/09 06:56:57;;;;;;;6.07;3.22;;;;;;;1.92;56.05;99001.13;4993920;28;20049;-79
2022/02/09 06:59:30;;;;;;;5.15;3.22;;;;;;;1.71;56.44;98977.75;4974979;28;20124;-80
2022/02/09 07:01:55;;;;;;;7.93;3.65;;;;;;;2.39;56.15;99082.16;4972791;28;20065;-79
2022/02/09 07:04:21;;;;;;;6.57;3.58;;;;;;;2.41;56.39;99077.06;4994296;28;20783;-78
2022/02/09 07:06:48;;;;;;;7.38;3.33;;;;;;;2.33;56.32;99058.97;4994751;28;20103;-79
2022/02/09 07:09:14;;;;;;;6.05;3.50;;;;;;;2.39;56.00;99053.91;5034907;28;20046;-80
2022/02/09 07:11:46;;;;;;;5.13;3.17;;;;;;;2.45;55.88;99052.25;5031668;28;20583;-78
2022/02/09 07:14:12;;;;;;;5.35;3.42;;;;;;;2.09;56.41;98996.22;5033731;28;20130;-80
2022/02/09 07:16:59;;;;;;;4.82;3.10;;;;;;;2.63;56.37;99103.84;4997592;28;20037;-80
2022/02/09 07:19:29;;;;;;;4.63;2.90;;;;;;;1.80;55.86;98947.94;4998142;28;20089;-80
2022/02/09 07:21:55;;;;;;;3.83;2.80;;;;;;;2.68;56.10;99065.38;5035261;28;20041;-80
2022/02/09 07:25:02;;;;;;;5.68;2.83;;;;;;;2.93;55.79;99104.19;5022321;28;20496;-80
2022/02/09 07:30:20;;;;;;;4.97;3.00;;;;;;;2.20;55.18;98903.06;5027069;28;20080;-79
2022/02/09 07:32:47;;;;;;;5.00;3.30;;;;;;;2.48;54.83;98934.16;5034179;28;20307;-81
2022/02/09 07:35:18;;;;;;;3.63;2.75;;;;;;;3.03;55.43;99016.06;5018946;28;20032;-81
2022/02/09 07:38:05;;;;;;;8.15;3.13;;;;;;;3.53;55.86;98989.00;5024915;28;20055;-80
2022/02/09 07:40:31;;;;;;;7.22;3.17;;;;;;;4.67;55.36;99062.53;5037175;28;20044;-80
2022/02/09 07:43:08;;;;;;;4.07;2.83;;;;;;;5.38;54.82;99103.97;5034458;28;20037;-81
2022/02/09 07:46:20;;;;;;;5.72;2.97;;;;;;;6.11;53.52;99096.19;5024538;28;20573;-79
2022/02/09 07:53:59;;;;;;;5.75;2.50;;;;;;;8.87;51.03;99028.44;5045689;28;20041;-81
2022/02/09 07:56:27;;;;;;;4.95;2.45;;;;;;;10.83;50.75;99062.22;5030764;28;20041;-80
2022/02/09 07:58:53;;;;;;;4.50;2.50;;;;;;;12.99;49.17;99081.06;5032369;28;20036;-79
2022/02/09 08:01:19;;;;;;;4.60;2.58;;;;;;;14.79;48.00;99080.31;5016397;28;20063;-80
2022/02/09 08:03:45;;;;;;;4.47;2.60;;;;;;;16.21;44.69;99051.91;5012715;28;20037;-80
2022/02/09 08:06:11;;;;;;;3.10;2.28;;;;;;;17.31;40.88;99074.03;5032270;28;20056;-81
2022/02/09 08:08:40;;;;;;;4.80;2.53;;;;;;;18.16;38.32;99058.44;5028659;28;20040;-80
2022/02/09 08:26:02;;;;;;;4.60;2.70;;;;;;;24.11;28.73;99060.44;5017792;28;20072;-80
2022/02/09 08:35:03;;;;;;;4.07;2.47;;;;;;;26.72;24.09;99038.19;5049642;28;20053;-79
2022/02/09 08:37:29;;;;;;;4.28;2.40;;;;;;;26.84;23.39;99008.72;5048086;28;20041;-80
2022/02/09 08:39:56;;;;;;;3.30;2.67;;;;;;;27.25;23.44;99032.69;5044810;28;20099;-81
2022/02/09 08:42:23;;;;;;;3.58;2.20;;;;;;;27.86;22.61;99033.38;5026942;28;20051;-80
2022/02/09 08:44:49;;;;;;;3.30;2.85;;;;;;;27.91;21.96;99031.09;5029478;28;20048;-79
2022/02/09 08:47:19;;;;;;;4.40;2.80;;;;;;;27.80;21.93;99005.38;5024485;28;20045;-82
2022/02/09 08:49:45;;;;;;;3.07;2.03;;;;;;;26.86;22.13;98956.06;5044310;28;20095;-81
2022/02/09 08:52:11;;;;;;;4.63;2.72;;;;;;;27.05;22.13;99030.00;5031080;28;20067;-78
2022/02/09 08:54:37;;;;;;;4.20;2.92;;;;;;;27.36;21.94;99006.69;5028740;28;20644;-79
2022/02/09 08:57:09;;;;;;;3.70;2.47;;;;;;;27.84;20.81;99008.59;5043917;28;20044;-80
2022/02/09 08:59:36;;;;;;;4.07;2.63;;;;;;;28.43;20.64;98989.72;5042007;28;20040;-80
2022/02/09 09:02:05;;;;;;;3.03;2.50;;;;;;;28.76;19.99;99008.84;4995704;28;20053;-80
2022/02/09 09:04:36;;;;;;;3.10;1.70;;;;;;;28.86;19.60;99021.19;5014141;28;20097;-83
2022/02/09 09:07:09;;;;;;;2.25;1.88;;;;;;;28.85;19.77;99024.03;5010514;28;20049;-78
2022/02/09 09:09:46;;;;;;;2.67;1.67;;;;;;;28.81;19.06;99028.81;5031827;28;20045;-79
2022/02/09 09:15:35;;;;;;;3.97;2.00;;;;;;;28.49;18.75;99024.75;5015893;28;20064;-78
2022/02/09 09:59:25;;;;;;;1.65;1.50;;;;;;;23.88;18.77;99017.84;5053819;28;20041;-81
2022/02/09 10:31:03;;;;;;;2.63;2.03;;;;;;;23.36;20.11;99014.69;5028238;28;20044;-81
2022/02/09 10:34:01;;;;;;;3.80;2.50;;;;;;;15.72;23.60;99021.59;5025189;28;20043;-82
2022/02/09 10:36:28;;;;;;;2.90;1.95;;;;;;;14.86;25.11;99013.69;4992348;28;20095;-81
2022/02/09 10:39:06;;;;;;;2.67;1.92;;;;;;;14.25;25.45;99037.75;5001146;28;20064;-81
2022/02/09 10:41:39;;;;;;;3.25;1.80;;;;;;;12.63;25.98;98969.88;4995745;28;20122;-81
2022/02/09 10:44:08;;;;;;;2.40;1.95;;;;;;;12.08;26.66;99031.47;5040362;28;20036;-80
2022/02/09 10:46:52;;;;;;;2.42;2.00;;;;;;;10.89;27.88;99043.03;5015191;28;20045;-81
2022/02/09 10:49:22;;;;;;;2.75;1.80;;;;;;;10.34;28.94;99064.94;5019616;28;20424;-80
2022/02/09 10:52:04;;;;;;;3.60;1.80;;;;;;;9.95;30.00;99075.19;5051070;28;20045;-82
2022/02/09 10:54:31;;;;;;;2.58;1.60;;;;;;;9.58;30.02;99044.66;5025991;28;20036;-79
2022/02/09 10:57:04;;;;;;;2.80;1.40;;;;;;;9.25;30.83;99062.50;5012209;28;20044;-80
2022/02/09 10:59:31;;;;;;;3.45;2.53;;;;;;;8.62;31.04;99041.75;5039916;28;20446;-81
2022/02/09 11:02:01;;;;;;;1.77;1.38;;;;;;;8.11;31.76;99044.91;5049719;28;20057;-79
2022/02/09 11:04:29;;;;;;;2.28;1.45;;;;;;;7.78;32.35;99094.47;5034379;28;20057;-79
2022/02/09 11:06:55;;;;;;;2.13;1.30;;;;;;;6.78;33.41;98966.66;5031941;28;20191;-82
2022/02/09 11:09:22;;;;;;;4.45;1.65;;;;;;;6.25;33.44;98930.81;5045205;28;20450;-81
2022/02/09 11:11:49;;;;;;;2.00;1.30;;;;;;;6.33;34.43;98985.88;5025324;28;20100;-80
2022/02/09 11:14:20;;;;;;;3.45;1.50;;;;;;;6.80;34.88;99081.31;5041620;28;20087;-79
2022/02/09 11:16:49;;;;;;;1.98;1.52;;;;;;;6.71;35.43;99066.69;5009234;28;20041;-79
2022/02/09 11:19:17;;;;;;;1.92;1.20;;;;;;;6.34;35.82;99022.94;5028934;28;20041;-81
2022/02/09 11:21:49;;;;;;;3.00;1.40;;;;;;;6.53;35.87;99087.47;5024094;28;20068;-80
2022/02/09 11:24:15;;;;;;;;;;;;;;;6.18;36.10;99089.28;5014463;28;20061;-81
2022/02/09 11:32:27;;;;;;;2.60;1.20;;;;;;;5.58;37.01;99092.78;5061683;28;20037;-81
2022/02/09 11:35:02;;;;;;;3.15;1.58;;;;;;;5.49;38.22;99090.19;5031713;28;20408;-79
2022/02/09 11:37:43;;;;;;;2.85;1.52;;;;;;;5.49;38.27;99105.66;5029885;28;20041;-81
2022/02/09 11:43:37;;;;;;;1.70;1.60;;;;;;;5.20;38.91;99109.06;5046612;28;20037;-81
2022/02/09 11:46:34;;;;;;;3.47;1.57;;;;;;;4.93;38.89;99097.84;5032486;28;20037;-78
2022/02/09 12:11:40;;;;;;;4.50;1.88;;;;;;;3.80;42.11;99135.88;5028755;28;20049;-80
2022/02/09 12:19:32;;;;;;;2.47;1.60;;;;;;;3.79;42.20;99110.97;5030317;28;20028;-81
2022/02/09 12:22:11;;;;;;;2.53;1.27;;;;;;;3.98;42.85;99137.72;4999380;28;20045;-81
2022/02/09 12:24:38;;;;;;;3.17;1.50;;;;;;;2.81;42.98;98918.19;5003283;28;20048;-83
2022/02/09 12:27:12;;;;;;;2.28;1.50;;;;;;;3.86;42.72;99081.88;5035561;28;20457;-81
2022/02/09 12:29:41;;;;;;;2.15;1.40;;;;;;;4.22;43.29;99127.59;5040234;28;20487;-83
2022/02/09 12:32:16;;;;;;;2.38;1.60;;;;;;;4.29;43.36;99136.22;5024572;28;20104;-81
2022/02/09 12:35:03;;;;;;;1.83;1.60;;;;;;;4.32;42.30;99130.19;5030790;28;20041;-83
2022/02/09 12:37:38;;;;;;;3.40;1.80;;;;;;;3.98;43.63;99104.25;5032834;28;20060;-82
2022/02/09 12:40:11;;;;;;;2.40;1.60;;;;;;;3.63;43.79;99033.66;5004681;28;20040;-81
2022/02/09 12:42:43;;;;;;;2.30;1.65;;;;;;;4.02;43.44;99104.28;5013608;28;20049;-80
2022/02/09 12:45:15;;;;;;;3.75;2.30;;;;;;;3.80;43.09;99072.41;5046740;28;20040;-83
2022/02/09 12:47:47;;;;;;;4.30;2.10;;;;;;;4.25;43.31;99149.91;5041416;28;20048;-78
2022/02/09 12:50:34;;;;;;;2.67;1.80;;;;;;;4.05;43.35;99122.31;5042124;28;20051;-79
2022/02/09 12:53:04;;;;;;;2.60;2.00;;;;;;;4.15;43.61;99146.44;5044303;28;20048;-79
2022/02/09 12:55:35;;;;;;;2.10;1.50;;;;;;;4.09;43.66;99156.66;5054497;28;20052;-79
2022/02/09 12:58:08;;;;;;;2.73;1.53;;;;;;;3.96;44.02;99149.72;5042462;28;20037;-80
2022/02/09 13:00:56;;;;;;;2.70;1.92;;;;;;;3.41;44.29;99081.53;5023948;28;20299;-80
2022/02/09 13:03:23;;;;;;;4.03;1.83;;;;;;;3.80;44.84;99154.75;5021762;28;20045;-80
2022/02/09 13:05:51;;;;;;;5.43;2.45;;;;;;;3.80;45.00;99159.91;5021802;28;20038;-81
2022/02/09 13:08:21;;;;;;;4.15;2.50;;;;;;;3.71;44.56;99140.09;4991900;28;20128;-80
2022/02/09 13:10:48;;;;;;;6.03;1.80;;;;;;;3.76;44.99;99176.16;5031393;28;20075;-80
2022/02/09 13:13:27;;;;;;;3.90;2.30;;;;;;;3.74;45.29;99163.28;5048906;28;20037;-81
2022/02/09 13:18:54;;;;;;;3.65;2.17;;;;;;;3.39;45.42;99122.66;5016966;28;20049;-80
2022/02/09 14:13:03;;;;;;;8.80;4.45;;;;;;;3.28;47.21;99132.84;5010098;28;20041;-80
2022/02/09 14:18:18;;;;;;;8.05;4.22;;;;;;;3.38;46.92;99164.66;5004936;28;20033;-80
2022/02/09 14:54:28;;;;;;;6.80;4.10;;;;;;;2.83;48.79;99136.63;5026383;28;20063;-79
2022/02/09 14:57:18;;;;;;;12.02;4.30;;;;;;;2.99;48.52;99182.22;5041959;28;20562;-82
2022/02/09 15:00:02;;;;;;;12.93;5.45;;;;;;;2.78;48.93;99156.25;4996898;28;20045;-81
2022/02/09 15:11:06;;;;;;;7.82;4.30;;;;;;;2.70;48.97;99151.03;5009441;28;20131;-81
2022/02/09 15:16:10;;;;;;;10.35;4.22;;;;;;;2.93;49.36;99186.44;5029759;28;20047;-80
2022/02/09 15:24:23;;;;;;;8.07;4.20;;;;;;;2.29;49.32;99085.47;5041042;28;20068;-81
2022/02/09 15:27:00;;;;;;;9.15;4.32;;;;;;;2.05;49.46;99044.91;5059322;28;20037;-80
2022/02/09 15:29:29;;;;;;;9.43;4.35;;;;;;;1.93;49.67;99023.38;5004329;28;20175;-78
2022/02/09 15:34:55;;;;;;;9.02;3.97;;;;;;;2.00;49.82;99034.59;5042673;28;20431;-81
2022/02/09 15:37:32;;;;;;;10.45;4.55;;;;;;;2.22;49.74;99076.78;5045337;28;20045;-80
2022/02/09 15:40:10;;;;;;;9.60;4.07;;;;;;;2.66;49.97;99156.97;5032207;28;20056;-81
2022/02/09 15:59:42;;;;;;;7.95;4.35;;;;;;;2.21;51.26;99144.38;5038235;28;20049;-80
2022/02/09 16:23:56;;;;;;;10.63;4.97;;;;;;;1.46;54.02;99138.94;5055192;28;19972;-78
2022/02/09 16:46:22;;;;;;;9.18;4.90;;;;;;;1.20;56.59;99078.69;5045013;28;20040;-79
2022/02/09 16:51:21;;;;;;;10.15;5.43;;;;;;;2.15;57.22;99220.44;5048273;28;20127;-83
2022/02/09 17:19:07;;;;;;;9.75;5.70;;;;;;;1.74;58.08;99153.09;5066984;28;20036;-81
2022/02/09 17:21:42;;;;;;;9.77;5.60;;;;;;;2.11;58.53;99219.56;5025808;28;20084;-80
2022/02/09 17:24:13;;;;;;;10.20;5.68;;;;;;;2.16;58.33;99224.75;5053521;28;20038;-78
2022/02/09 17:26:43;;;;;;;11.63;5.93;;;;;;;2.08;58.29;99224.63;5044396;28;20038;-81
2022/02/09 17:29:30;;;;;;;10.55;5.55;;;;;;;0.96;58.69;99039.81;5024574;28;20103;-80
2022/02/09 17:32:03;;;;;;;9.73;5.07;;;;;;;1.77;58.63;99194.19;5047446;28;20024;-80
2022/02/09 17:34:49;;;;;;;10.40;5.30;;;;;;;1.28;58.52;99112.16;5017555;28;20033;-81
2022/02/09 17:54:06;;;;;;;11.00;5.88;;;;;;;1.67;59.62;99217.94;5049563;28;20036;-80
2022/02/09 17:56:47;;;;;;;11.57;5.82;;;;;;;1.70;59.90;99224.84;5047921;28;20029;-80
2022/02/09 17:59:19;;;;;;;14.25;5.68;;;;;;;0.82;60.08;99073.72;5044936;28;20136;-79
2022/02/09 18:01:45;;;;;;;10.60;6.15;;;;;;;1.69;60.00;99215.44;5044854;28;20119;-79
2022/02/09 18:04:11;;;;;;;9.82;5.65;;;;;;;1.58;60.37;99200.69;5029822;28;20041;-81
2022/02/09 18:06:44;;;;;;;12.60;6.35;;;;;;;1.07;60.30;99104.06;5011381;28;20116;-80
2022/02/09 18:09:15;;;;;;;9.75;5.72;;;;;;;1.42;60.10;99162.78;5045816;28;20068;-81
2022/02/09 18:14:49;;;;;;;10.38;5.80;;;;;;;1.14;60.64;99111.91;5033672;28;20047;-80
2022/02/09 18:26:43;;;;;;;10.57;5.55;;;;;;;1.48;61.03;99166.31;5032251;28;20037;-80
2022/02/09 18:31:08;;;;;;;10.60;5.80;;;;;;;1.65;61.03;99170.91;5034184;28;20098;-81
2022/02/09 18:40:18;;;;;;;11.52;6.38;;;;;;;1.73;61.25;99168.47;5052861;28;20068;-81
2022/02/09 18:44:44;;;;;;;11.93;6.70;;;;;;;1.40;60.80;99106.38;5030150;28;20082;-84
2022/02/09 19:03:39;;;;;;;9.80;5.80;;;;;;;2.26;61.40;99209.50;5028918;28;20575;-79
2022/02/09 19:06:19;;;;;;;12.00;6.22;;;;;;;2.29;61.61;99197.56;5025028;28;20065;-81
2022/02/09 19:14:10;;;;;;;11.77;5.78;;;;;;;2.03;61.55;99145.00;5029257;28;20047;-81
2022/02/09 19:15:23;;;;;;;10.60;6.07;;;;;;;1.39;60.38;99022.59;5034521;28;20051;-81
2022/02/09 19:32:30;;;;;;;8.07;4.50;;;;;;;2.75;61.10;99212.78;5045126;28;20037;-80
2022/02/09 19:51:43;;;;;;;9.75;5.00;;;;;;;2.95;60.36;99203.63;5041514;28;20044;-80
2022/02/09 19:56:50;;;;;;;8.90;4.82;;;;;;;3.00;60.54;99204.53;5037947;28;20052;-82
2022/02/09 19:59:23;;;;;;;8.07;5.13;;;;;;;2.49;60.38;99118.25;5035186;28;21338;-80
2022/02/09 20:02:11;;;;;;;9.60;4.90;;;;;;;2.13;59.88;99057.84;5050379;28;20508;-79
2022/02/09 20:04:56;;;;;;;10.23;5.32;;;;;;;2.96;60.55;99194.19;5020338;28;20044;-81
2022/02/09 20:07:23;;;;;;;10.57;4.90;;;;;;;2.48;59.91;99119.94;5051311;28;20503;-79
2022/02/09 20:09:54;;;;;;;8.05;5.03;;;;;;;2.72;59.83;99151.91;5051059;28;20059;-81
2022/02/09 20:12:23;;;;;;;10.05;4.82;;;;;;;2.56;59.93;99109.75;5017962;28;20041;-79
2022/02/09 20:15:13;;;;;;;7.60;5.13;;;;;;;2.68;59.93;99138.19;5027702;28;20040;-81
2022/02/09 20:17:44;;;;;;;8.07;5.25;;;;;;;2.62;59.76;99119.25;5033174;28;20082;-80
2022/02/09 20:20:15;;;;;;;7.53;4.97;;;;;;;2.80;59.85;99152.00;5051311;28;20158;-79
2022/02/09 20:22:44;;;;;;;6.68;4.70;;;;;;;2.96;59.86;99171.06;5015466;28;20523;-79
2022/02/09 20:25:31;;;;;;;8.20;5.03;;;;;;;2.05;59.84;99022.69;5018182;28;20105;-79
2022/02/09 20:28:01;;;;;;;8.70;4.90;;;;;;;3.26;60.05;99201.41;5046180;28;20049;-78
2022/02/09 20:30:35;;;;;;;6.10;4.60;;;;;;;1.91;59.44;98991.72;5029158;28;20029;-79
2022/02/09 20:33:05;;;;;;;7.97;4.78;;;;;;;3.10;59.62;99208.06;5018571;28;20099;-79
2022/02/09 20:35:31;;;;;;;9.73;5.00;;;;;;;3.14;59.73;99207.25;5047610;28;20049;-80
2022/02/09 20:37:57;;;;;;;9.60;5.07;;;;;;;3.02;59.95;99178.84;5030460;28;20048;-78
2022/02/09 20:40:59;;;;;;;10.75;5.72;;;;;;;2.98;59.86;99164.22;5029216;28;20125;-81
2022/02/09 20:44:02;;;;;;;7.03;4.95;;;;;;;2.03;59.34;99026.94;5046400;28;20058;-80
2022/02/09 20:46:56;;;;;;;9.82;5.50;;;;;;;1.82;59.52;99001.00;4998376;28;20037;-80
2022/02/09 20:49:35;;;;;;;8.77;5.25;;;;;;;2.68;59.79;99143.31;5003371;28;20442;-80
2022/02/09 20:52:13;;;;;;;9.68;5.75;;;;;;;2.89;59.77;99190.69;5032707;28;20043;-81
2022/02/09 20:54:40;;;;;;;9.98;5.55;;;;;;;2.85;59.50;99200.06;5040314;28;20361;-79
2022/02/09 20:57:06;;;;;;;7.13;5.13;;;;;;;1.64;59.67;99002.47;5011053;28;20061;-79
2022/02/09 20:59:50;;;;;;;9.82;5.82;;;;;;;2.31;59.49;99140.28;5061519;28;20041;-80
2022/02/09 21:04:57;;;;;;;7.25;5.05;;;;;;;2.46;60.28;99193.53;5032523;28;20071;-81
2022/02/09 21:07:36;;;;;;;10.25;4.93;;;;;;;2.19;60.07;99158.94;5031006;28;20582;-80
2022/02/09 21:10:25;;;;;;;8.85;5.75;;;;;;;2.16;60.15;99165.69;5020552;28;20040;-78
2022/02/09 21:12:56;;;;;;;7.68;4.80;;;;;;;1.91;59.95;99129.41;5033141;28;20044;-78
2022/02/09 21:15:47;;;;;;;8.85;4.97;;;;;;;2.15;60.68;99169.09;5047608;28;20136;-80
2022/02/09 21:58:05;;;;;;;8.88;5.57;;;;;;;1.72;61.61;99152.19;5043790;28;20048;-81
2022/02/09 22:19:16;;;;;;;9.50;4.70;;;;;;;1.74;62.12;99214.66;5011491;28;20520;-78
2022/02/09 22:27:40;;;;;;;8.18;4.85;;;;;;;1.69;62.62;99207.72;5022099;28;20052;-79
2022/02/09 22:56:35;;;;;;;5.30;3.40;;;;;;;1.45;62.41;99194.47;5010328;28;20509;-79
2022/02/09 22:59:06;;;;;;;8.75;4.07;;;;;;;1.35;62.58;99193.44;5026908;28;20114;-80
2022/02/09 23:01:42;;;;;;;8.02;4.07;;;;;;;1.29;62.68;99179.66;5028864;28;20114;-79
